createdAt,value
2022-12-25T10:32:17.580Z,5.90
2022-12-25T10:36:24.075Z,4.33
2022-12-25T10:40:39.233Z,3.50
2022-12-25T10:45:03.960Z,3.47
2022-12-25T10:49:19.959Z,3.57
2022-12-25T11:07:30.653Z,3.40
2022-12-25T11:11:34.522Z,4.10
2022-12-25T11:15:40.473Z,3.37
2022-12-25T11:19:54.000Z,3.90
2022-12-25T11:24:00.756Z,3.60
2022-12-25T11:28:06.427Z,3.50
2022-12-25T11:32:18.238Z,3.60
2022-12-25T11:36:29.417Z,4.07
2022-12-25T11:40:43.663Z,4.00
2022-12-25T11:44:52.625Z,4.23
2022-12-25T11:49:00.590Z,3.83
2022-12-25T11:53:07.191Z,4.17
2022-12-25T11:57:13.989Z,6.17
2022-12-25T12:01:25.799Z,5.20
2022-12-25T12:05:35.074Z,4.83
2022-12-25T12:09:49.931Z,4.67
2022-12-25T12:14:10.491Z,5.40
2022-12-25T12:18:23.439Z,6.87
2022-12-25T12:22:28.879Z,5.80
2022-12-25T12:26:37.983Z,6.07
2022-12-25T12:30:42.712Z,6.90
2022-12-25T12:34:50.813Z,6.97
2022-12-25T12:38:55.099Z,7.13
2022-12-25T12:42:58.563Z,7.03
2022-12-25T12:47:03.589Z,7.57
2022-12-25T12:51:08.904Z,6.70
2022-12-25T12:55:13.784Z,6.37
2022-12-25T12:59:17.017Z,6.53
2022-12-25T13:03:43.687Z,6.90
2022-12-25T13:08:02.293Z,7.90
2022-12-25T13:12:08.323Z,8.53
2022-12-25T13:16:21.139Z,15.57
2022-12-25T13:20:35.028Z,9.50
2022-12-25T13:24:38.963Z,10.10
2022-12-25T13:28:43.385Z,9.00
2022-12-25T13:32:46.934Z,8.90
2022-12-25T13:36:51.984Z,9.70
2022-12-25T13:50:35.851Z,10.07
2022-12-25T13:54:40.589Z,11.43
2022-12-25T13:58:45.861Z,11.50
2022-12-25T14:02:50.221Z,9.97
2022-12-25T14:06:54.094Z,9.83
2022-12-25T14:11:03.881Z,9.13
2022-12-25T14:15:08.613Z,8.40
2022-12-25T14:19:25.829Z,9.40
2022-12-25T14:23:31.825Z,8.07
2022-12-25T14:27:36.835Z,7.50
2022-12-25T14:31:41.125Z,8.10
2022-12-25T14:35:45.612Z,9.20
2022-12-25T14:39:59.500Z,9.53
2022-12-25T14:44:06.854Z,9.03
2022-12-25T14:48:24.447Z,9.27
2022-12-25T14:52:30.945Z,8.37
2022-12-25T14:56:39.279Z,8.97
2022-12-25T15:00:44.224Z,9.10
2022-12-25T15:04:47.544Z,8.90
2022-12-25T15:09:01.479Z,8.30
2022-12-25T15:13:05.164Z,8.90
2022-12-25T15:17:26.257Z,9.43
2022-12-25T15:21:32.407Z,9.20
2022-12-25T15:25:35.799Z,7.90
2022-12-25T15:30:10.667Z,8.80
2022-12-25T15:34:08.047Z,8.90
2022-12-25T15:38:12.558Z,9.00
2022-12-25T15:42:18.229Z,8.93
2022-12-25T15:46:24.637Z,9.33
2022-12-25T15:50:29.467Z,8.80
2022-12-25T15:54:33.075Z,9.57
2022-12-25T15:58:36.428Z,9.87
2022-12-25T16:02:40.063Z,8.80
2022-12-25T16:06:45.086Z,10.63
2022-12-25T16:10:48.865Z,8.73
2022-12-25T16:14:52.265Z,10.40
2022-12-25T16:18:55.609Z,11.00
2022-12-25T16:23:00.308Z,10.00
2022-12-25T16:27:03.733Z,10.40
2022-12-25T16:31:07.895Z,10.03
2022-12-25T16:35:12.545Z,11.20
2022-12-25T16:39:17.240Z,10.13
2022-12-25T16:43:24.122Z,13.33
2022-12-25T16:47:27.770Z,12.60
2022-12-25T16:51:31.295Z,11.83
2022-12-25T16:55:37.031Z,12.20
2022-12-25T16:59:41.785Z,12.33
2022-12-25T17:03:46.758Z,12.20
2022-12-25T17:07:51.330Z,12.10
2022-12-25T17:11:56.472Z,10.90
2022-12-25T17:16:00.026Z,13.10
2022-12-25T17:20:03.904Z,14.70
2022-12-25T17:24:08.223Z,12.17
2022-12-25T17:28:13.771Z,13.90
2022-12-25T17:32:17.068Z,9.77
2022-12-25T17:36:22.297Z,13.73
2022-12-25T17:40:26.741Z,10.87
2022-12-25T17:44:31.463Z,11.33
2022-12-25T17:48:36.361Z,12.50
2022-12-25T17:52:39.653Z,11.60
2022-12-25T17:56:42.983Z,11.87
2022-12-25T18:00:47.877Z,11.10
2022-12-25T18:04:51.424Z,12.57
2022-12-25T18:08:56.409Z,10.53
2022-12-25T18:12:59.794Z,12.40
2022-12-25T18:17:05.180Z,12.00
2022-12-25T18:21:09.946Z,11.93
2022-12-25T18:25:13.414Z,12.47
2022-12-25T18:29:16.967Z,15.90
2022-12-25T18:33:21.681Z,22.43
2022-12-25T18:37:26.649Z,18.03
2022-12-25T18:41:30.830Z,18.50
2022-12-25T18:45:35.003Z,18.70
2022-12-25T18:51:05.380Z,15.47
2022-12-25T19:01:16.863Z,16.63
2022-12-25T23:22:06.765Z,11.60
2022-12-25T23:31:08.516Z,9.77
2022-12-25T23:49:27.976Z,9.00
2022-12-25T23:53:40.122Z,10.10
